sensor_id;sensor_type;location;lat;lon;timestamp;pressure;altitude;pressure_sealevel;temperature;humidity
62791;BME280;48830;53.426;10.300;2023-02-04T08:29:15;103654.59;;;1.79;100.00
62791;BME280;48830;53.426;10.300;2023-02-04T08:31:40;103656.22;;;1.96;100.00
62791;BME280;48830;53.426;10.300;2023-02-04T08:34:06;103650.38;;;2.06;100.00
62791;BME280;48830;53.426;10.300;2023-02-04T08:36:31;103656.47;;;2.17;100.00
62791;BME280;48830;53.426;10.300;2023-02-04T08:38:57;103648.38;;;2.29;100.00
62791;BME280;48830;53.426;10.300;2023-02-04T08:41:22;103650.00;;;2.38;100.00
62791;BME280;48830;53.426;10.300;2023-02-04T08:43:48;103652.47;;;2.55;100.00
62791;BME280;48830;53.426;10.300;2023-02-04T08:46:13;103661.56;;;2.61;100.00
62791;BME280;48830;53.426;10.300;2023-02-04T08:48:39;103663.31;;;2.71;100.00
62791;BME280;48830;53.426;10.300;2023-02-04T08:51:04;103665.00;;;2.89;100.00
62791;BME280;48830;53.426;10.300;2023-02-04T08:53:30;103669.72;;;3.04;100.00
62791;BME280;48830;53.426;10.300;2023-02-04T08:55:55;103672.47;;;3.24;100.00
62791;BME280;48830;53.426;10.300;2023-02-04T08:58:21;103673.78;;;3.29;100.00
62791;BME280;48830;53.426;10.300;2023-02-04T09:00:46;103674.00;;;3.41;100.00
62791;BME280;48830;53.426;10.300;2023-02-04T09:03:11;103680.81;;;3.51;100.00
62791;BME280;48830;53.426;10.300;2023-02-04T09:05:37;103683.22;;;3.68;100.00
62791;BME280;48830;53.426;10.300;2023-02-04T09:08:02;103680.16;;;3.91;100.00
62791;BME280;48830;53.426;10.300;2023-02-04T09:10:28;103685.28;;;4.20;100.00
62791;BME280;48830;53.426;10.300;2023-02-04T09:12:54;103694.22;;;4.64;100.00
62791;BME280;48830;53.426;10.300;2023-02-04T09:15:22;103701.81;;;4.93;100.00
62791;BME280;48830;53.426;10.300;2023-02-04T09:17:49;103704.13;;;5.21;100.00
62791;BME280;48830;53.426;10.300;2023-02-04T09:20:14;103714.06;;;5.69;100.00
62791;BME280;48830;53.426;10.300;2023-02-04T09:22:40;103710.66;;;6.97;99.16
62791;BME280;48830;53.426;10.300;2023-02-04T09:25:05;103720.19;;;8.72;86.66
62791;BME280;48830;53.426;10.300;2023-02-04T09:27:31;103724.66;;;10.16;76.88
62791;BME280;48830;53.426;10.300;2023-02-04T09:29:56;103733.44;;;11.58;69.48
62791;BME280;48830;53.426;10.300;2023-02-04T09:32:22;103728.41;;;12.51;63.47
62791;BME280;48830;53.426;10.300;2023-02-04T09:34:48;103730.63;;;13.09;60.13
62791;BME280;48830;53.426;10.300;2023-02-04T09:37:13;103732.66;;;13.83;56.72
62791;BME280;48830;53.426;10.300;2023-02-04T09:39:38;103730.19;;;14.39;54.00
62791;BME280;48830;53.426;10.300;2023-02-04T09:42:04;103728.50;;;15.16;51.65
62791;BME280;48830;53.426;10.300;2023-02-04T09:44:29;103731.13;;;15.77;49.40
62791;BME280;48830;53.426;10.300;2023-02-04T09:46:58;103731.47;;;16.07;48.72
62791;BME280;48830;53.426;10.300;2023-02-04T09:49:25;103730.47;;;17.19;46.55
62791;BME280;48830;53.426;10.300;2023-02-04T09:51:52;103730.69;;;16.31;46.25
62791;BME280;48830;53.426;10.300;2023-02-04T09:54:20;103735.75;;;16.96;47.16
62791;BME280;48830;53.426;10.300;2023-02-04T09:56:46;103738.91;;;17.88;45.00
62791;BME280;48830;53.426;10.300;2023-02-04T09:59:13;103737.28;;;18.47;42.89
62791;BME280;48830;53.426;10.300;2023-02-04T10:01:39;103735.69;;;19.12;42.12
62791;BME280;48830;53.426;10.300;2023-02-04T10:04:08;103732.28;;;19.83;40.43
62791;BME280;48830;53.426;10.300;2023-02-04T10:06:35;103740.38;;;20.33;39.31
62791;BME280;48830;53.426;10.300;2023-02-04T10:09:01;103745.84;;;21.30;38.40
62791;BME280;48830;53.426;10.300;2023-02-04T10:11:36;103750.47;;;21.43;37.87
62791;BME280;48830;53.426;10.300;2023-02-04T10:14:03;103745.69;;;21.69;37.47
62791;BME280;48830;53.426;10.300;2023-02-04T10:16:31;103745.72;;;22.30;36.28
62791;BME280;48830;53.426;10.300;2023-02-04T10:18:59;103746.41;;;22.85;36.39
62791;BME280;48830;53.426;10.300;2023-02-04T10:21:30;103743.66;;;22.75;35.59
62791;BME280;48830;53.426;10.300;2023-02-04T10:23:58;103746.13;;;23.41;35.54
62791;BME280;48830;53.426;10.300;2023-02-04T10:26:28;103752.50;;;23.64;34.62
62791;BME280;48830;53.426;10.300;2023-02-04T10:29:05;103752.97;;;24.38;34.43
62791;BME280;48830;53.426;10.300;2023-02-04T10:31:34;103750.97;;;24.00;34.19
62791;BME280;48830;53.426;10.300;2023-02-04T10:34:19;103746.03;;;24.52;32.87
62791;BME280;48830;53.426;10.300;2023-02-04T10:36:55;103750.56;;;24.93;32.06
62791;BME280;48830;53.426;10.300;2023-02-04T10:39:26;103754.94;;;25.00;31.95
62791;BME280;48830;53.426;10.300;2023-02-04T10:41:57;103755.91;;;25.54;31.52
62791;BME280;48830;53.426;10.300;2023-02-04T10:44:31;103754.16;;;25.30;31.74
62791;BME280;48830;53.426;10.300;2023-02-04T10:47:13;103751.50;;;25.99;31.50
62791;BME280;48830;53.426;10.300;2023-02-04T10:49:40;103752.34;;;26.16;30.88
62791;BME280;48830;53.426;10.300;2023-02-04T10:52:16;103769.97;;;25.53;31.32
62791;BME280;48830;53.426;10.300;2023-02-04T10:54:43;103770.84;;;26.01;30.92
62791;BME280;48830;53.426;10.300;2023-02-04T10:57:25;103765.59;;;25.79;30.75
62791;BME280;48830;53.426;10.300;2023-02-04T10:59:54;103761.44;;;20.80;36.29
62791;BME280;48830;53.426;10.300;2023-02-04T11:04:54;103764.56;;;17.52;41.45
62791;BME280;48830;53.426;10.300;2023-02-04T11:07:21;103765.31;;;16.76;44.03
62791;BME280;48830;53.426;10.300;2023-02-04T11:09:47;103761.44;;;16.89;43.48
62791;BME280;48830;53.426;10.300;2023-02-04T11:12:36;103769.81;;;16.80;42.93
62791;BME280;48830;53.426;10.300;2023-02-04T11:15:03;103773.28;;;17.78;42.93
62791;BME280;48830;53.426;10.300;2023-02-04T11:17:30;103771.44;;;16.33;44.55
62791;BME280;48830;53.426;10.300;2023-02-04T11:19:56;103768.63;;;14.48;46.70
62791;BME280;48830;53.426;10.300;2023-02-04T11:22:34;103766.16;;;15.48;47.20
62791;BME280;48830;53.426;10.300;2023-02-04T11:25:00;103767.28;;;21.10;38.87
62791;BME280;48830;53.426;10.300;2023-02-04T11:27:37;103761.69;;;16.72;43.04
62791;BME280;48830;53.426;10.300;2023-02-04T11:30:05;103764.53;;;22.65;35.12
62791;BME280;48830;53.426;10.300;2023-02-04T11:32:35;103760.00;;;19.11;36.62
62791;BME280;48830;53.426;10.300;2023-02-04T11:37:38;103760.56;;;14.99;45.59
62791;BME280;48830;53.426;10.300;2023-02-04T11:42:48;103764.22;;;14.65;46.07
62791;BME280;48830;53.426;10.300;2023-02-04T11:47:41;103772.59;;;13.21;48.21
62791;BME280;48830;53.426;10.300;2023-02-04T11:50:16;103769.13;;;14.59;47.88
62791;BME280;48830;53.426;10.300;2023-02-04T11:52:43;103769.03;;;22.11;34.64
62791;BME280;48830;53.426;10.300;2023-02-04T11:55:10;103763.63;;;24.60;33.05
62791;BME280;48830;53.426;10.300;2023-02-04T11:57:40;103775.34;;;23.74;33.32
62791;BME280;48830;53.426;10.300;2023-02-04T12:00:19;103777.34;;;22.42;33.26
62791;BME280;48830;53.426;10.300;2023-02-04T12:02:48;103774.81;;;23.19;34.02
62791;BME280;48830;53.426;10.300;2023-02-04T12:05:17;103779.38;;;24.59;31.50
62791;BME280;48830;53.426;10.300;2023-02-04T12:07:44;103783.28;;;22.29;33.74
62791;BME280;48830;53.426;10.300;2023-02-04T12:10:22;103789.34;;;22.24;34.98
62791;BME280;48830;53.426;10.300;2023-02-04T12:12:51;103779.00;;;21.31;33.50
62791;BME280;48830;53.426;10.300;2023-02-04T12:15:22;103785.06;;;23.88;32.05
62791;BME280;48830;53.426;10.300;2023-02-04T12:18:06;103785.47;;;24.53;30.95
62791;BME280;48830;53.426;10.300;2023-02-04T12:20:33;103777.16;;;22.93;32.60
62791;BME280;48830;53.426;10.300;2023-02-04T12:22:59;103783.25;;;21.72;34.47
62791;BME280;48830;53.426;10.300;2023-02-04T12:25:25;103782.75;;;20.18;36.58
62791;BME280;48830;53.426;10.300;2023-02-04T12:27:54;103785.94;;;21.79;34.87
62791;BME280;48830;53.426;10.300;2023-02-04T12:30:22;103796.34;;;22.25;33.53
62791;BME280;48830;53.426;10.300;2023-02-04T12:32:48;103795.16;;;21.54;33.91
62791;BME280;48830;53.426;10.300;2023-02-04T12:35:14;103794.00;;;20.53;35.58
62791;BME280;48830;53.426;10.300;2023-02-04T12:37:40;103793.25;;;20.23;35.79
62791;BME280;48830;53.426;10.300;2023-02-04T12:40:06;103792.72;;;20.36;34.69
62791;BME280;48830;53.426;10.300;2023-02-04T12:42:32;103793.47;;;21.12;34.82
62791;BME280;48830;53.426;10.300;2023-02-04T12:44:58;103796.53;;;19.78;34.72
62791;BME280;48830;53.426;10.300;2023-02-04T12:47:23;103790.59;;;19.19;36.43
62791;BME280;48830;53.426;10.300;2023-02-04T12:49:49;103784.38;;;19.45;36.77
62791;BME280;48830;53.426;10.300;2023-02-04T12:52:14;103789.63;;;19.15;37.18
62791;BME280;48830;53.426;10.300;2023-02-04T12:54:40;103785.28;;;18.84;38.32
62791;BME280;48830;53.426;10.300;2023-02-04T12:57:05;103790.34;;;18.51;36.96
62791;BME280;48830;53.426;10.300;2023-02-04T12:59:31;103799.47;;;19.58;37.56
62791;BME280;48830;53.426;10.300;2023-02-04T13:01:57;103797.75;;;18.94;37.31
62791;BME280;48830;53.426;10.300;2023-02-04T13:04:22;103797.25;;;18.77;36.31
62791;BME280;48830;53.426;10.300;2023-02-04T13:06:48;103800.88;;;18.27;36.66
62791;BME280;48830;53.426;10.300;2023-02-04T13:09:13;103804.53;;;18.60;37.55
62791;BME280;48830;53.426;10.300;2023-02-04T13:11:39;103800.19;;;18.32;37.51
62791;BME280;48830;53.426;10.300;2023-02-04T13:14:04;103812.31;;;18.30;37.53
62791;BME280;48830;53.426;10.300;2023-02-04T13:16:30;103819.28;;;18.31;37.86
62791;BME280;48830;53.426;10.300;2023-02-04T13:18:55;103806.59;;;17.88;38.39
62791;BME280;48830;53.426;10.300;2023-02-04T13:21:21;103807.69;;;17.21;39.05
62791;BME280;48830;53.426;10.300;2023-02-04T13:23:46;103806.44;;;17.34;39.40
62791;BME280;48830;53.426;10.300;2023-02-04T13:26:12;103809.59;;;18.27;38.46
62791;BME280;48830;53.426;10.300;2023-02-04T13:28:37;103810.00;;;18.98;38.19
62791;BME280;48830;53.426;10.300;2023-02-04T13:31:03;103805.84;;;19.05;37.35
62791;BME280;48830;53.426;10.300;2023-02-04T13:33:29;103803.50;;;19.14;37.23
62791;BME280;48830;53.426;10.300;2023-02-04T13:35:54;103808.75;;;18.01;38.97
62791;BME280;48830;53.426;10.300;2023-02-04T13:38:19;103815.25;;;16.91;40.02
62791;BME280;48830;53.426;10.300;2023-02-04T13:40:45;103820.03;;;15.94;41.23
62791;BME280;48830;53.426;10.300;2023-02-04T13:43:10;103811.13;;;15.48;42.11
62791;BME280;48830;53.426;10.300;2023-02-04T13:45:36;103813.34;;;15.39;43.17
62791;BME280;48830;53.426;10.300;2023-02-04T13:48:01;103819.31;;;15.38;42.83
62791;BME280;48830;53.426;10.300;2023-02-04T13:50:27;103818.25;;;14.77;43.76
62791;BME280;48830;53.426;10.300;2023-02-04T13:52:52;103823.19;;;14.01;45.13
62791;BME280;48830;53.426;10.300;2023-02-04T13:55:19;103821.72;;;14.06;44.80
62791;BME280;48830;53.426;10.300;2023-02-04T13:57:45;103827.78;;;13.88;45.95
62791;BME280;48830;53.426;10.300;2023-02-04T14:00:11;103822.97;;;13.13;46.67
62791;BME280;48830;53.426;10.300;2023-02-04T14:02:39;103829.03;;;12.82;48.02
62791;BME280;48830;53.426;10.300;2023-02-04T14:05:05;103833.41;;;12.38;49.36
62791;BME280;48830;53.426;10.300;2023-02-04T14:07:30;103836.28;;;12.13;50.52
62791;BME280;48830;53.426;10.300;2023-02-04T14:09:58;103842.88;;;12.22;49.90
62791;BME280;48830;53.426;10.300;2023-02-04T14:12:23;103839.28;;;12.20;49.77
62791;BME280;48830;53.426;10.300;2023-02-04T14:14:49;103839.91;;;11.87;51.35
62791;BME280;48830;53.426;10.300;2023-02-04T14:17:14;103836.34;;;11.42;52.08
62791;BME280;48830;53.426;10.300;2023-02-04T14:19:40;103835.28;;;11.10;52.97
62791;BME280;48830;53.426;10.300;2023-02-04T14:22:05;103833.72;;;10.99;54.18
62791;BME280;48830;53.426;10.300;2023-02-04T14:24:32;103845.44;;;10.67;53.55
62791;BME280;48830;53.426;10.300;2023-02-04T14:26:57;103846.13;;;10.25;54.60
62791;BME280;48830;53.426;10.300;2023-02-04T14:29:23;103846.97;;;10.12;55.40
62791;BME280;48830;53.426;10.300;2023-02-04T14:31:48;103845.41;;;9.89;56.58
62791;BME280;48830;53.426;10.300;2023-02-04T14:34:14;103844.09;;;9.69;58.17
62791;BME280;48830;53.426;10.300;2023-02-04T14:36:39;103846.28;;;9.52;58.50
62791;BME280;48830;53.426;10.300;2023-02-04T14:39:04;103846.47;;;9.30;59.09
62791;BME280;48830;53.426;10.300;2023-02-04T14:41:30;103848.44;;;9.20;59.20
62791;BME280;48830;53.426;10.300;2023-02-04T14:43:56;103845.41;;;9.14;60.69
62791;BME280;48830;53.426;10.300;2023-02-04T14:46:21;103849.63;;;9.26;60.12
62791;BME280;48830;53.426;10.300;2023-02-04T14:48:47;103847.78;;;9.11;60.16
62791;BME280;48830;53.426;10.300;2023-02-04T14:51:12;103848.34;;;9.07;60.50
62791;BME280;48830;53.426;10.300;2023-02-04T14:53:38;103843.13;;;8.94;61.35
62791;BME280;48830;53.426;10.300;2023-02-04T14:56:04;103843.28;;;8.72;62.15
62791;BME280;48830;53.426;10.300;2023-02-04T14:58:29;103837.69;;;8.54;63.55
62791;BME280;48830;53.426;10.300;2023-02-04T15:00:55;103845.72;;;8.47;63.43
62791;BME280;48830;53.426;10.300;2023-02-04T15:03:20;103843.28;;;8.37;63.92
62791;BME280;48830;53.426;10.300;2023-02-04T15:05:45;103846.78;;;8.27;63.76
62791;BME280;48830;53.426;10.300;2023-02-04T15:08:11;103850.91;;;8.13;64.10
62791;BME280;48830;53.426;10.300;2023-02-04T15:10:36;103851.66;;;8.01;65.91
62791;BME280;48830;53.426;10.300;2023-02-04T15:13:02;103849.06;;;7.89;66.21
62791;BME280;48830;53.426;10.300;2023-02-04T15:15:27;103848.34;;;7.80;67.37
62791;BME280;48830;53.426;10.300;2023-02-04T15:17:53;103849.00;;;7.66;68.73
62791;BME280;48830;53.426;10.300;2023-02-04T15:20:18;103851.28;;;7.51;70.23
62791;BME280;48830;53.426;10.300;2023-02-04T15:22:44;103846.38;;;7.10;71.43
62791;BME280;48830;53.426;10.300;2023-02-04T15:25:11;103850.31;;;6.95;73.25
62791;BME280;48830;53.426;10.300;2023-02-04T15:27:37;103854.44;;;6.82;74.35
62791;BME280;48830;53.426;10.300;2023-02-04T15:30:03;103844.63;;;6.67;75.64
62791;BME280;48830;53.426;10.300;2023-02-04T15:32:28;103851.88;;;6.40;77.19
62791;BME280;48830;53.426;10.300;2023-02-04T15:34:54;103852.66;;;6.29;78.26
62791;BME280;48830;53.426;10.300;2023-02-04T15:37:19;103843.75;;;6.14;79.07
62791;BME280;48830;53.426;10.300;2023-02-04T15:39:45;103842.22;;;6.05;80.65
62791;BME280;48830;53.426;10.300;2023-02-04T15:42:10;103849.72;;;5.84;82.22
62791;BME280;48830;53.426;10.300;2023-02-04T15:44:36;103848.31;;;5.77;83.84
62791;BME280;48830;53.426;10.300;2023-02-04T15:47:01;103850.88;;;5.67;84.68
62791;BME280;48830;53.426;10.300;2023-02-04T15:49:27;103849.56;;;5.51;85.72
62791;BME280;48830;53.426;10.300;2023-02-04T15:51:52;103858.47;;;5.46;86.04
62791;BME280;48830;53.426;10.300;2023-02-04T15:54:18;103867.00;;;5.37;86.67
62791;BME280;48830;53.426;10.300;2023-02-04T15:56:43;103860.22;;;5.37;86.22
62791;BME280;48830;53.426;10.300;2023-02-04T15:59:09;103865.06;;;5.24;87.06
62791;BME280;48830;53.426;10.300;2023-02-04T16:01:34;103858.00;;;5.11;88.85
62791;BME280;48830;53.426;10.300;2023-02-04T16:04:00;103859.13;;;5.05;89.27
62791;BME280;48830;53.426;10.300;2023-02-04T16:06:25;103860.13;;;4.96;90.18
62791;BME280;48830;53.426;10.300;2023-02-04T16:08:51;103865.28;;;4.88;89.37
62791;BME280;48830;53.426;10.300;2023-02-04T16:11:17;103864.28;;;4.86;90.58
62791;BME280;48830;53.426;10.300;2023-02-04T16:13:43;103869.84;;;4.82;90.99
62791;BME280;48830;53.426;10.300;2023-02-04T16:16:08;103871.88;;;4.76;91.62
62791;BME280;48830;53.426;10.300;2023-02-04T16:18:34;103870.38;;;4.59;91.63
62791;BME280;48830;53.426;10.300;2023-02-04T16:20:59;103878.78;;;4.58;92.55
62791;BME280;48830;53.426;10.300;2023-02-04T16:23:25;103880.28;;;4.56;91.67
62791;BME280;48830;53.426;10.300;2023-02-04T16:25:50;103878.97;;;4.51;92.73
62791;BME280;48830;53.426;10.300;2023-02-04T16:28:16;103884.41;;;4.45;93.77
62791;BME280;48830;53.426;10.300;2023-02-04T16:30:42;103875.88;;;4.44;93.27
62791;BME280;48830;53.426;10.300;2023-02-04T16:33:07;103877.75;;;4.37;93.06
62791;BME280;48830;53.426;10.300;2023-02-04T16:35:56;103877.59;;;4.35;93.99
62791;BME280;48830;53.426;10.300;2023-02-04T16:38:22;103874.50;;;4.29;95.09
62791;BME280;48830;53.426;10.300;2023-02-04T16:40:48;103881.13;;;4.27;95.86
62791;BME280;48830;53.426;10.300;2023-02-04T16:43:13;103887.78;;;4.16;95.75
62791;BME280;48830;53.426;10.300;2023-02-04T16:45:38;103891.44;;;4.10;96.71
62791;BME280;48830;53.426;10.300;2023-02-04T16:48:04;103894.78;;;4.00;96.77
62791;BME280;48830;53.426;10.300;2023-02-04T16:50:29;103888.63;;;3.98;96.88
62791;BME280;48830;53.426;10.300;2023-02-04T16:52:55;103890.00;;;3.94;97.55
62791;BME280;48830;53.426;10.300;2023-02-04T16:55:20;103888.91;;;3.82;97.66
62791;BME280;48830;53.426;10.300;2023-02-04T16:57:45;103900.28;;;3.77;97.88
62791;BME280;48830;53.426;10.300;2023-02-04T17:00:11;103901.22;;;3.69;99.67
62791;BME280;48830;53.426;10.300;2023-02-04T17:02:37;103899.75;;;3.62;100.00
62791;BME280;48830;53.426;10.300;2023-02-04T17:05:03;103902.63;;;3.57;100.00
62791;BME280;48830;53.426;10.300;2023-02-04T17:07:29;103893.38;;;3.49;100.00
62791;BME280;48830;53.426;10.300;2023-02-04T17:09:55;103897.41;;;3.47;100.00
62791;BME280;48830;53.426;10.300;2023-02-04T17:12:20;103900.72;;;3.46;100.00
62791;BME280;48830;53.426;10.300;2023-02-04T17:14:45;103903.41;;;3.38;100.00
62791;BME280;48830;53.426;10.300;2023-02-04T17:17:11;103905.56;;;3.34;100.00
62791;BME280;48830;53.426;10.300;2023-02-04T17:19:36;103909.00;;;3.34;100.00
62791;BME280;48830;53.426;10.300;2023-02-04T17:22:02;103911.84;;;3.29;100.00
62791;BME280;48830;53.426;10.300;2023-02-04T17:24:27;103911.56;;;3.17;100.00
62791;BME280;48830;53.426;10.300;2023-02-04T17:26:53;103908.88;;;3.15;100.00
62791;BME280;48830;53.426;10.300;2023-02-04T17:29:18;103904.69;;;3.16;100.00
62791;BME280;48830;53.426;10.300;2023-02-04T17:31:46;103903.78;;;3.15;100.00
62791;BME280;48830;53.426;10.300;2023-02-04T17:34:11;103903.53;;;3.04;100.00
62791;BME280;48830;53.426;10.300;2023-02-04T17:36:37;103901.41;;;3.08;100.00
62791;BME280;48830;53.426;10.300;2023-02-04T17:39:03;103911.59;;;3.00;100.00
62791;BME280;48830;53.426;10.300;2023-02-04T17:41:29;103907.13;;;2.97;100.00
62791;BME280;48830;53.426;10.300;2023-02-04T17:43:55;103918.75;;;2.95;100.00
62791;BME280;48830;53.426;10.300;2023-02-04T17:46:20;103912.78;;;2.95;100.00
62791;BME280;48830;53.426;10.300;2023-02-04T17:48:46;103914.44;;;2.94;100.00
62791;BME280;48830;53.426;10.300;2023-02-04T17:51:11;103916.09;;;2.94;100.00
62791;BME280;48830;53.426;10.300;2023-02-04T17:53:37;103913.09;;;2.89;100.00
62791;BME280;48830;53.426;10.300;2023-02-04T17:56:08;103902.94;;;2.98;100.00
62791;BME280;48830;53.426;10.300;2023-02-04T17:58:34;103902.34;;;2.92;100.00
62791;BME280;48830;53.426;10.300;2023-02-04T18:01:08;103903.53;;;2.95;100.00
62791;BME280;48830;53.426;10.300;2023-02-04T18:03:34;103904.41;;;2.96;100.00
62791;BME280;48830;53.426;10.300;2023-02-04T18:06:28;103898.63;;;2.97;100.00
62791;BME280;48830;53.426;10.300;2023-02-04T18:08:54;103892.31;;;2.93;100.00
62791;BME280;48830;53.426;10.300;2023-02-04T18:11:30;103899.06;;;2.93;100.00
62791;BME280;48830;53.426;10.300;2023-02-04T18:14:02;103891.56;;;2.94;100.00
62791;BME280;48830;53.426;10.300;2023-02-04T18:16:32;103895.44;;;2.90;100.00
62791;BME280;48830;53.426;10.300;2023-02-04T18:19:19;103903.38;;;2.94;99.98
62791;BME280;48830;53.426;10.300;2023-02-04T18:21:47;103901.47;;;2.91;100.00
62791;BME280;48830;53.426;10.300;2023-02-04T18:24:14;103908.78;;;2.88;100.00
62791;BME280;48830;53.426;10.300;2023-02-04T18:26:50;103907.13;;;2.88;99.66
62791;BME280;48830;53.426;10.300;2023-02-04T18:31:53;103921.16;;;3.02;99.28
62791;BME280;48830;53.426;10.300;2023-02-04T18:34:27;103917.44;;;2.99;98.07
62791;BME280;48830;53.426;10.300;2023-02-04T18:36:53;103922.38;;;2.88;98.83
62791;BME280;48830;53.426;10.300;2023-02-04T18:39:26;103922.09;;;2.85;98.58
62791;BME280;48830;53.426;10.300;2023-02-04T18:41:52;103918.31;;;2.99;99.09
62791;BME280;48830;53.426;10.300;2023-02-04T18:44:31;103918.31;;;2.90;99.34
62791;BME280;48830;53.426;10.300;2023-02-04T18:46:57;103926.09;;;3.01;99.04
62791;BME280;48830;53.426;10.300;2023-02-04T18:49:27;103925.06;;;2.81;99.06
62791;BME280;48830;53.426;10.300;2023-02-04T18:51:53;103919.41;;;2.75;99.43
62791;BME280;48830;53.426;10.300;2023-02-04T18:54:25;103912.66;;;2.84;99.31
62791;BME280;48830;53.426;10.300;2023-02-04T18:56:51;103910.13;;;2.93;99.26
62791;BME280;48830;53.426;10.300;2023-02-04T18:59:22;103916.09;;;2.76;99.83
62791;BME280;48830;53.426;10.300;2023-02-04T19:01:51;103923.13;;;2.87;100.00
62791;BME280;48830;53.426;10.300;2023-02-04T19:04:20;103916.69;;;2.82;99.81
62791;BME280;48830;53.426;10.300;2023-02-04T19:06:45;103921.16;;;2.85;100.00
62791;BME280;48830;53.426;10.300;2023-02-04T19:09:21;103922.38;;;2.88;100.00
62791;BME280;48830;53.426;10.300;2023-02-04T19:14:38;103915.19;;;2.84;99.65
62791;BME280;48830;53.426;10.300;2023-02-04T19:19:42;103925.66;;;2.87;100.00
62791;BME280;48830;53.426;10.300;2023-02-04T19:22:28;103930.44;;;2.84;99.55
62791;BME280;48830;53.426;10.300;2023-02-04T19:25:28;103931.34;;;2.76;100.00
62791;BME280;48830;53.426;10.300;2023-02-04T19:27:57;103928.66;;;2.66;100.00
62791;BME280;48830;53.426;10.300;2023-02-04T19:32:52;103922.69;;;2.66;100.00
62791;BME280;48830;53.426;10.300;2023-02-04T19:35:26;103912.53;;;2.66;100.00
62791;BME280;48830;53.426;10.300;2023-02-04T19:38:10;103917.47;;;2.64;100.00
62791;BME280;48830;53.426;10.300;2023-02-04T19:40:46;103908.19;;;2.73;100.00
62791;BME280;48830;53.426;10.300;2023-02-04T19:43:39;103914.16;;;2.82;100.00
62791;BME280;48830;53.426;10.300;2023-02-04T19:46:23;103917.28;;;2.88;100.00
62791;BME280;48830;53.426;10.300;2023-02-04T19:48:49;103921.16;;;2.85;100.00
62791;BME280;48830;53.426;10.300;2023-02-04T19:53:46;103926.72;;;2.72;100.00
62791;BME280;48830;53.426;10.300;2023-02-04T19:56:36;103922.66;;;2.74;100.00
62791;BME280;48830;53.426;10.300;2023-02-04T20:01:46;103934.50;;;2.65;100.00
62791;BME280;48830;53.426;10.300;2023-02-04T20:04:21;103930.44;;;2.67;100.00
62791;BME280;48830;53.426;10.300;2023-02-04T20:06:46;103936.28;;;2.66;100.00
62791;BME280;48830;53.426;10.300;2023-02-04T20:09:18;103934.34;;;2.72;100.00
62791;BME280;48830;53.426;10.300;2023-02-04T20:12:29;103921.63;;;2.72;100.00
62791;BME280;48830;53.426;10.300;2023-02-04T20:17:32;103923.88;;;2.69;100.00
62791;BME280;48830;53.426;10.300;2023-02-04T20:20:14;103921.19;;;2.59;100.00
62791;BME280;48830;53.426;10.300;2023-02-04T20:22:45;103919.69;;;2.70;100.00
62791;BME280;48830;53.426;10.300;2023-02-04T20:28:09;103913.13;;;2.54;100.00
62791;BME280;48830;53.426;10.300;2023-02-04T20:30:36;103910.41;;;2.53;100.00
62791;BME280;48830;53.426;10.300;2023-02-04T20:33:32;103904.03;;;2.48;100.00
62791;BME280;48830;53.426;10.300;2023-02-04T20:38:47;103899.50;;;2.36;100.00
62791;BME280;48830;53.426;10.300;2023-02-04T20:41:18;103901.59;;;2.41;100.00
62791;BME280;48830;53.426;10.300;2023-02-04T20:43:44;103892.78;;;2.28;100.00
62791;BME280;48830;53.426;10.300;2023-02-04T20:46:21;103892.94;;;2.21;100.00
62791;BME280;48830;53.426;10.300;2023-02-04T20:48:48;103894.13;;;2.16;100.00
62791;BME280;48830;53.426;10.300;2023-02-04T20:51:20;103899.03;;;2.06;100.00
62791;BME280;48830;53.426;10.300;2023-02-04T20:58:46;103893.91;;;1.97;100.00
62791;BME280;48830;53.426;10.300;2023-02-04T21:01:28;103894.25;;;2.00;100.00
62791;BME280;48830;53.426;10.300;2023-02-04T21:03:58;103899.13;;;1.99;100.00
62791;BME280;48830;53.426;10.300;2023-02-04T21:06:27;103900.50;;;1.95;100.00
62791;BME280;48830;53.426;10.300;2023-02-04T21:08:55;103898.81;;;1.87;100.00
62791;BME280;48830;53.426;10.300;2023-02-04T21:11:21;103896.88;;;1.84;100.00
62791;BME280;48830;53.426;10.300;2023-02-04T21:13:48;103892.66;;;1.76;100.00
62791;BME280;48830;53.426;10.300;2023-02-04T21:16:14;103903.13;;;1.79;100.00
62791;BME280;48830;53.426;10.300;2023-02-04T21:18:40;103901.75;;;1.74;100.00
62791;BME280;48830;53.426;10.300;2023-02-04T21:21:07;103896.53;;;1.73;100.00
62791;BME280;48830;53.426;10.300;2023-02-04T21:23:34;103899.66;;;1.70;100.00
62791;BME280;48830;53.426;10.300;2023-02-04T21:26:00;103913.06;;;1.69;100.00
62791;BME280;48830;53.426;10.300;2023-02-04T21:28:25;103904.84;;;1.63;100.00
62791;BME280;48830;53.426;10.300;2023-02-04T21:30:51;103911.66;;;1.55;100.00
62791;BME280;48830;53.426;10.300;2023-02-04T21:33:16;103911.38;;;1.61;100.00
62791;BME280;48830;53.426;10.300;2023-02-04T21:35:42;103909.72;;;1.53;100.00
62791;BME280;48830;53.426;10.300;2023-02-04T21:38:07;103897.81;;;1.52;100.00
62791;BME280;48830;53.426;10.300;2023-02-04T21:40:35;103904.78;;;1.46;100.00
62791;BME280;48830;53.426;10.300;2023-02-04T21:43:00;103897.91;;;1.45;100.00
62791;BME280;48830;53.426;10.300;2023-02-04T21:45:30;103908.91;;;1.37;100.00
62791;BME280;48830;53.426;10.300;2023-02-04T21:47:55;103913.06;;;1.36;100.00
62791;BME280;48830;53.426;10.300;2023-02-04T21:50:21;103915.13;;;1.31;100.00
62791;BME280;48830;53.426;10.300;2023-02-04T21:52:47;103918.50;;;1.23;100.00
62791;BME280;48830;53.426;10.300;2023-02-04T21:55:15;103911.88;;;1.08;100.00